Main page
Satellite images 10-day forecastsClimateMarine weather Cyclones Lightning AirportsFAQ Newsletter About
Weather : Europe Africa North America South America Asia Australia-Oceania Others
Languages Contact

London, England

London City Airport

latitude: 51-30N, longitude: 000-03E, elevation: 5 m


METAR: EGLC 271120Z 28009KT 250V320 9999 FEW037 10/M01 Q1021
TAF: EGLC 271102Z 2712/2721 26008KT CAVOK

Time: 11:53 (11:53 UTC)

Current weather observation

The report was made 33 minutes ago, at 11:20 UTC
Wind 9 kt from the West, varying between West/Southwest and Northwest
Temperature 10°C
Humidity 46%
Pressure 1021 hPa
Visibility 10 km or more
Few clouds at a height of 3700 ft

Change units

Forecast

The report was made 51 minutes ago, at 11:02 UTC
Forecast valid from 27 at 12 UTC to 27 at 21 UTC
Wind 8 kt from the West
Visibility 10 km or more
no clouds below 1500 m and no cumulonimbus
The information on this site is subject to a disclaimer
Weather : Europe Africa North America South America Asia Australia-Oceania Others
Satellite images 10-day forecastsClimateMarine weather Cyclones Lightning AirportsFAQ Languages Contact Newsletter About